sensor_id;sensor_type;location;lat;lon;timestamp;pressure;altitude;pressure_sealevel;temperature;humidity
28935;BME280;16044;52.726;-2.108;2023-05-09T00:02:08;100305.38;;;13.49;100.00
28935;BME280;16044;52.726;-2.108;2023-05-09T00:04:55;100298.22;;;13.41;100.00
28935;BME280;16044;52.726;-2.108;2023-05-09T00:07:43;100294.03;;;13.45;100.00
28935;BME280;16044;52.726;-2.108;2023-05-09T00:10:31;100292.78;;;13.48;100.00
28935;BME280;16044;52.726;-2.108;2023-05-09T00:13:18;100290.28;;;13.46;100.00
28935;BME280;16044;52.726;-2.108;2023-05-09T00:16:06;100286.50;;;13.47;100.00
28935;BME280;16044;52.726;-2.108;2023-05-09T00:18:54;100286.31;;;13.49;100.00
28935;BME280;16044;52.726;-2.108;2023-05-09T00:21:44;100289.66;;;13.44;100.00
28935;BME280;16044;52.726;-2.108;2023-05-09T00:24:32;100282.31;;;13.44;100.00
28935;BME280;16044;52.726;-2.108;2023-05-09T00:27:19;100291.50;;;13.43;100.00
28935;BME280;16044;52.726;-2.108;2023-05-09T00:30:19;100282.31;;;13.44;100.00
28935;BME280;16044;52.726;-2.108;2023-05-09T00:33:06;100289.66;;;13.44;100.00
28935;BME280;16044;52.726;-2.108;2023-05-09T00:35:54;100287.50;;;13.39;100.00
28935;BME280;16044;52.726;-2.108;2023-05-09T00:38:41;100277.00;;;13.36;100.00
28935;BME280;16044;52.726;-2.108;2023-05-09T00:41:29;100281.63;;;13.36;100.00
28935;BME280;16044;52.726;-2.108;2023-05-09T00:44:16;100281.44;;;13.37;100.00
28935;BME280;16044;52.726;-2.108;2023-05-09T00:47:04;100276.38;;;13.34;100.00
28935;BME280;16044;52.726;-2.108;2023-05-09T00:49:53;100273.66;;;13.34;100.00
28935;BME280;16044;52.726;-2.108;2023-05-09T00:52:41;100263.81;;;13.33;100.00
28935;BME280;16044;52.726;-2.108;2023-05-09T00:55:28;100262.31;;;13.31;100.00
28935;BME280;16044;52.726;-2.108;2023-05-09T00:58:16;100258.09;;;13.28;100.00
28935;BME280;16044;52.726;-2.108;2023-05-09T01:01:05;100253.91;;;13.25;100.00
28935;BME280;16044;52.726;-2.108;2023-05-09T01:03:53;100257.44;;;13.26;100.00
28935;BME280;16044;52.726;-2.108;2023-05-09T01:06:47;100255.75;;;13.25;100.00
28935;BME280;16044;52.726;-2.108;2023-05-09T01:13:03;100237.53;;;13.19;100.00
28935;BME280;16044;52.726;-2.108;2023-05-09T01:16:06;100235.22;;;13.16;100.00
28935;BME280;16044;52.726;-2.108;2023-05-09T01:22:17;100231.41;;;13.10;100.00
28935;BME280;16044;52.726;-2.108;2023-05-09T01:25:09;100230.97;;;13.06;100.00
28935;BME280;16044;52.726;-2.108;2023-05-09T01:31:23;100234.88;;;12.97;100.00
28935;BME280;16044;52.726;-2.108;2023-05-09T01:34:12;100233.97;;;12.90;100.00
28935;BME280;16044;52.726;-2.108;2023-05-09T01:37:04;100220.31;;;12.83;100.00
28935;BME280;16044;52.726;-2.108;2023-05-09T01:39:52;100224.03;;;12.76;100.00
28935;BME280;16044;52.726;-2.108;2023-05-09T01:42:46;100227.53;;;12.70;100.00
28935;BME280;16044;52.726;-2.108;2023-05-09T01:45:38;100222.72;;;12.65;100.00
28935;BME280;16044;52.726;-2.108;2023-05-09T01:48:27;100226.66;;;12.62;100.00
28935;BME280;16044;52.726;-2.108;2023-05-09T01:51:17;100224.72;;;12.56;100.00
28935;BME280;16044;52.726;-2.108;2023-05-09T01:54:06;100225.56;;;12.57;100.00
28935;BME280;16044;52.726;-2.108;2023-05-09T01:56:54;100219.66;;;12.53;100.00
28935;BME280;16044;52.726;-2.108;2023-05-09T01:59:43;100210.03;;;12.51;100.00
28935;BME280;16044;52.726;-2.108;2023-05-09T02:02:33;100211.28;;;12.48;100.00
28935;BME280;16044;52.726;-2.108;2023-05-09T02:05:25;100212.13;;;12.48;100.00
28935;BME280;16044;52.726;-2.108;2023-05-09T02:08:17;100210.88;;;12.51;100.00
28935;BME280;16044;52.726;-2.108;2023-05-09T02:11:07;100209.41;;;12.48;100.00
28935;BME280;16044;52.726;-2.108;2023-05-09T02:13:54;100202.06;;;12.49;100.00
28935;BME280;16044;52.726;-2.108;2023-05-09T02:16:42;100203.69;;;12.43;100.00
28935;BME280;16044;52.726;-2.108;2023-05-09T02:19:34;100201.16;;;12.42;100.00
28935;BME280;16044;52.726;-2.108;2023-05-09T02:22:21;100195.31;;;12.38;100.00
28935;BME280;16044;52.726;-2.108;2023-05-09T02:25:10;100194.22;;;12.33;100.00
28935;BME280;16044;52.726;-2.108;2023-05-09T02:28:01;100194.22;;;12.33;100.00
28935;BME280;16044;52.726;-2.108;2023-05-09T02:30:50;100201.06;;;12.28;100.00
28935;BME280;16044;52.726;-2.108;2023-05-09T02:33:40;100192.91;;;12.28;100.00
28935;BME280;16044;52.726;-2.108;2023-05-09T02:36:29;100197.31;;;12.29;100.00
28935;BME280;16044;52.726;-2.108;2023-05-09T02:39:18;100191.03;;;12.29;100.00
28935;BME280;16044;52.726;-2.108;2023-05-09T02:42:09;100183.34;;;12.33;100.00
28935;BME280;16044;52.726;-2.108;2023-05-09T02:44:57;100181.72;;;12.38;100.00
28935;BME280;16044;52.726;-2.108;2023-05-09T02:47:45;100188.19;;;12.37;100.00
28935;BME280;16044;52.726;-2.108;2023-05-09T02:50:32;100183.19;;;12.41;100.00
28935;BME280;16044;52.726;-2.108;2023-05-09T02:53:20;100191.16;;;12.42;100.00
28935;BME280;16044;52.726;-2.108;2023-05-09T02:56:07;100183.19;;;12.41;100.00
28935;BME280;16044;52.726;-2.108;2023-05-09T02:58:55;100177.38;;;12.44;100.00
28935;BME280;16044;52.726;-2.108;2023-05-09T03:01:43;100173.88;;;12.50;100.00
28935;BME280;16044;52.726;-2.108;2023-05-09T03:04:30;100176.38;;;12.52;100.00
28935;BME280;16044;52.726;-2.108;2023-05-09T03:07:17;100165.25;;;12.46;100.00
28935;BME280;16044;52.726;-2.108;2023-05-09T03:10:05;100160.28;;;12.50;100.00
28935;BME280;16044;52.726;-2.108;2023-05-09T03:12:53;100162.72;;;12.45;100.00
28935;BME280;16044;52.726;-2.108;2023-05-09T03:15:40;100163.00;;;12.50;100.00
28935;BME280;16044;52.726;-2.108;2023-05-09T03:18:28;100160.47;;;12.48;100.00
28935;BME280;16044;52.726;-2.108;2023-05-09T03:21:15;100155.03;;;12.48;100.00
28935;BME280;16044;52.726;-2.108;2023-05-09T03:24:03;100162.34;;;12.48;100.00
28935;BME280;16044;52.726;-2.108;2023-05-09T03:26:50;100153.31;;;12.47;100.00
28935;BME280;16044;52.726;-2.108;2023-05-09T03:29:38;100157.47;;;12.43;100.00
28935;BME280;16044;52.726;-2.108;2023-05-09T03:32:25;100150.31;;;12.36;100.00
28935;BME280;16044;52.726;-2.108;2023-05-09T03:35:13;100140.88;;;12.32;100.00
28935;BME280;16044;52.726;-2.108;2023-05-09T03:38:01;100151.75;;;12.32;100.00
28935;BME280;16044;52.726;-2.108;2023-05-09T03:40:49;100150.84;;;12.24;100.00
28935;BME280;16044;52.726;-2.108;2023-05-09T03:43:37;100149.03;;;12.32;100.00
28935;BME280;16044;52.726;-2.108;2023-05-09T03:46:25;100152.13;;;12.28;100.00
28935;BME280;16044;52.726;-2.108;2023-05-09T03:49:12;100161.78;;;12.31;100.00
28935;BME280;16044;52.726;-2.108;2023-05-09T03:52:00;100161.59;;;12.33;100.00
28935;BME280;16044;52.726;-2.108;2023-05-09T03:54:48;100157.19;;;12.32;100.00
28935;BME280;16044;52.726;-2.108;2023-05-09T03:57:35;100152.81;;;12.31;100.00
28935;BME280;16044;52.726;-2.108;2023-05-09T04:00:22;100157.19;;;12.32;100.00
28935;BME280;16044;52.726;-2.108;2023-05-09T04:03:12;100150.97;;;12.38;100.00
28935;BME280;16044;52.726;-2.108;2023-05-09T04:06:00;100148.06;;;12.39;100.00
28935;BME280;16044;52.726;-2.108;2023-05-09T04:08:47;100144.50;;;12.39;100.00
28935;BME280;16044;52.726;-2.108;2023-05-09T04:11:34;100138.00;;;12.40;100.00
28935;BME280;16044;52.726;-2.108;2023-05-09T04:14:22;100141.78;;;12.39;100.00
28935;BME280;16044;52.726;-2.108;2023-05-09T04:17:09;100133.44;;;12.40;100.00
28935;BME280;16044;52.726;-2.108;2023-05-09T04:19:57;100126.75;;;12.43;100.00
28935;BME280;16044;52.726;-2.108;2023-05-09T04:22:44;100139.31;;;12.44;100.00
28935;BME280;16044;52.726;-2.108;2023-05-09T04:25:32;100138.06;;;12.46;100.00
28935;BME280;16044;52.726;-2.108;2023-05-09T04:28:20;100126.75;;;12.43;100.00
28935;BME280;16044;52.726;-2.108;2023-05-09T04:31:07;100130.50;;;12.42;100.00
28935;BME280;16044;52.726;-2.108;2023-05-09T04:33:55;100129.09;;;12.46;100.00
28935;BME280;16044;52.726;-2.108;2023-05-09T04:36:44;100123.00;;;12.44;100.00
28935;BME280;16044;52.726;-2.108;2023-05-09T04:39:31;100130.09;;;12.45;100.00
28935;BME280;16044;52.726;-2.108;2023-05-09T04:42:18;100130.75;;;12.47;100.00
28935;BME280;16044;52.726;-2.108;2023-05-09T04:45:07;100128.47;;;12.51;100.00
28935;BME280;16044;52.726;-2.108;2023-05-09T04:47:55;100138.53;;;12.50;100.00
28935;BME280;16044;52.726;-2.108;2023-05-09T04:50:42;100131.00;;;12.52;100.00
28935;BME280;16044;52.726;-2.108;2023-05-09T04:53:30;100130.63;;;12.55;100.00
28935;BME280;16044;52.726;-2.108;2023-05-09T04:56:17;100138.16;;;12.60;100.00
28935;BME280;16044;52.726;-2.108;2023-05-09T04:59:05;100129.75;;;12.55;100.00
28935;BME280;16044;52.726;-2.108;2023-05-09T05:01:52;100123.09;;;12.57;100.00
28935;BME280;16044;52.726;-2.108;2023-05-09T05:04:40;100125.59;;;12.59;100.00
28935;BME280;16044;52.726;-2.108;2023-05-09T05:07:27;100121.66;;;12.61;100.00
28935;BME280;16044;52.726;-2.108;2023-05-09T05:10:15;100121.47;;;12.63;100.00
28935;BME280;16044;52.726;-2.108;2023-05-09T05:13:02;100116.41;;;12.60;100.00
28935;BME280;16044;52.726;-2.108;2023-05-09T05:15:50;100114.41;;;12.68;100.00
28935;BME280;16044;52.726;-2.108;2023-05-09T05:18:38;100112.69;;;12.67;100.00
28935;BME280;16044;52.726;-2.108;2023-05-09T05:21:25;100122.31;;;12.70;100.00
28935;BME280;16044;52.726;-2.108;2023-05-09T05:24:12;100112.94;;;12.73;100.00
28935;BME280;16044;52.726;-2.108;2023-05-09T05:27:00;100113.38;;;12.76;100.00
28935;BME280;16044;52.726;-2.108;2023-05-09T05:29:48;100101.91;;;12.81;100.00
28935;BME280;16044;52.726;-2.108;2023-05-09T05:32:38;100100.81;;;12.75;100.00
28935;BME280;16044;52.726;-2.108;2023-05-09T05:36:00;100106.88;;;12.71;100.00
28935;BME280;16044;52.726;-2.108;2023-05-09T05:38:47;100104.59;;;12.74;100.00
28935;BME280;16044;52.726;-2.108;2023-05-09T05:41:34;100094.72;;;12.66;100.00
28935;BME280;16044;52.726;-2.108;2023-05-09T05:44:22;100096.63;;;12.73;100.00
28935;BME280;16044;52.726;-2.108;2023-05-09T05:47:09;100102.72;;;12.75;100.00
28935;BME280;16044;52.726;-2.108;2023-05-09T05:49:57;100102.28;;;12.78;100.00
28935;BME280;16044;52.726;-2.108;2023-05-09T05:52:45;100113.38;;;12.76;100.00
28935;BME280;16044;52.726;-2.108;2023-05-09T05:55:32;100109.03;;;12.82;100.00
28935;BME280;16044;52.726;-2.108;2023-05-09T05:58:20;100118.72;;;12.91;100.00
28935;BME280;16044;52.726;-2.108;2023-05-09T06:01:07;100122.78;;;13.15;100.00
28935;BME280;16044;52.726;-2.108;2023-05-09T06:03:55;100119.78;;;13.45;100.00
28935;BME280;16044;52.726;-2.108;2023-05-09T06:06:42;100120.94;;;13.84;100.00
28935;BME280;16044;52.726;-2.108;2023-05-09T06:09:29;100119.91;;;14.32;100.00
28935;BME280;16044;52.726;-2.108;2023-05-09T06:12:17;100114.41;;;14.92;100.00
28935;BME280;16044;52.726;-2.108;2023-05-09T06:15:05;100121.56;;;15.38;100.00
28935;BME280;16044;52.726;-2.108;2023-05-09T06:17:53;100122.59;;;15.44;100.00
28935;BME280;16044;52.726;-2.108;2023-05-09T06:20:40;100122.03;;;15.28;100.00
28935;BME280;16044;52.726;-2.108;2023-05-09T06:23:28;100125.44;;;15.10;100.00
28935;BME280;16044;52.726;-2.108;2023-05-09T06:26:15;100122.78;;;14.84;100.00
28935;BME280;16044;52.726;-2.108;2023-05-09T06:29:03;100128.31;;;14.57;100.00
28935;BME280;16044;52.726;-2.108;2023-05-09T06:31:52;100125.16;;;14.33;100.00
28935;BME280;16044;52.726;-2.108;2023-05-09T06:34:40;100127.47;;;14.16;100.00
28935;BME280;16044;52.726;-2.108;2023-05-09T06:37:32;100123.66;;;14.04;100.00
28935;BME280;16044;52.726;-2.108;2023-05-09T06:40:20;100124.50;;;13.98;100.00
28935;BME280;16044;52.726;-2.108;2023-05-09T06:43:07;100129.13;;;13.97;100.00
28935;BME280;16044;52.726;-2.108;2023-05-09T06:45:54;100129.72;;;13.93;100.00
28935;BME280;16044;52.726;-2.108;2023-05-09T06:48:42;100126.38;;;13.91;100.00
28935;BME280;16044;52.726;-2.108;2023-05-09T06:51:29;100124.50;;;13.98;100.00
28935;BME280;16044;52.726;-2.108;2023-05-09T06:54:17;100128.94;;;13.99;100.00
28935;BME280;16044;52.726;-2.108;2023-05-09T06:57:04;100109.00;;;14.12;100.00
28935;BME280;16044;52.726;-2.108;2023-05-09T06:59:51;100107.34;;;14.24;100.00
28935;BME280;16044;52.726;-2.108;2023-05-09T07:02:39;100098.06;;;14.38;100.00
28935;BME280;16044;52.726;-2.108;2023-05-09T07:05:28;100106.47;;;14.50;100.00
28935;BME280;16044;52.726;-2.108;2023-05-09T07:08:15;100103.53;;;14.72;100.00
28935;BME280;16044;52.726;-2.108;2023-05-09T07:11:03;100110.44;;;14.74;100.00
28935;BME280;16044;52.726;-2.108;2023-05-09T07:13:51;100104.13;;;14.74;100.00
28935;BME280;16044;52.726;-2.108;2023-05-09T07:16:38;100109.56;;;14.87;100.00
28935;BME280;16044;52.726;-2.108;2023-05-09T07:19:26;100109.34;;;14.95;100.00
28935;BME280;16044;52.726;-2.108;2023-05-09T07:22:13;100103.88;;;14.95;100.00
28935;BME280;16044;52.726;-2.108;2023-05-09T07:25:00;100106.16;;;14.98;100.00
28935;BME280;16044;52.726;-2.108;2023-05-09T07:27:48;100107.81;;;15.06;100.00
28935;BME280;16044;52.726;-2.108;2023-05-09T07:30:35;100095.75;;;15.27;100.00
28935;BME280;16044;52.726;-2.108;2023-05-09T07:33:22;100102.56;;;15.56;100.00
28935;BME280;16044;52.726;-2.108;2023-05-09T07:36:10;100093.88;;;15.66;100.00
28935;BME280;16044;52.726;-2.108;2023-05-09T07:38:59;100096.13;;;15.83;100.00
28935;BME280;16044;52.726;-2.108;2023-05-09T07:41:47;100109.00;;;15.75;100.00
28935;BME280;16044;52.726;-2.108;2023-05-09T07:44:34;100112.97;;;15.73;100.00
28935;BME280;16044;52.726;-2.108;2023-05-09T07:47:22;100120.31;;;15.72;100.00
28935;BME280;16044;52.726;-2.108;2023-05-09T07:50:09;100119.97;;;15.62;100.00
28935;BME280;16044;52.726;-2.108;2023-05-09T07:52:57;100115.53;;;15.61;100.00
28935;BME280;16044;52.726;-2.108;2023-05-09T07:55:45;100118.91;;;15.63;100.00
28935;BME280;16044;52.726;-2.108;2023-05-09T07:58:36;100110.69;;;15.63;100.00
28935;BME280;16044;52.726;-2.108;2023-05-09T08:01:23;100099.97;;;15.75;100.00
28935;BME280;16044;52.726;-2.108;2023-05-09T08:04:10;100111.00;;;15.87;100.00
28935;BME280;16044;52.726;-2.108;2023-05-09T08:06:58;100110.19;;;15.86;100.00
28935;BME280;16044;52.726;-2.108;2023-05-09T08:09:45;100105.75;;;15.85;99.68
28935;BME280;16044;52.726;-2.108;2023-05-09T08:12:33;100104.22;;;15.96;98.16
28935;BME280;16044;52.726;-2.108;2023-05-09T08:15:20;100098.44;;;16.11;97.43
28935;BME280;16044;52.726;-2.108;2023-05-09T08:18:08;100094.16;;;16.40;97.64
28935;BME280;16044;52.726;-2.108;2023-05-09T08:20:56;100092.69;;;16.63;96.60
28935;BME280;16044;52.726;-2.108;2023-05-09T08:23:45;100084.81;;;16.73;90.44
28935;BME280;16044;52.726;-2.108;2023-05-09T08:26:33;100089.38;;;16.79;90.18
28935;BME280;16044;52.726;-2.108;2023-05-09T08:29:21;100076.00;;;16.89;89.46
28935;BME280;16044;52.726;-2.108;2023-05-09T08:32:08;100078.91;;;16.94;87.98
28935;BME280;16044;52.726;-2.108;2023-05-09T08:34:56;100081.81;;;17.00;88.69
28935;BME280;16044;52.726;-2.108;2023-05-09T08:37:43;100063.38;;;17.07;89.25
28935;BME280;16044;52.726;-2.108;2023-05-09T08:40:34;100063.91;;;17.15;89.49
28935;BME280;16044;52.726;-2.108;2023-05-09T08:43:23;100061.31;;;17.21;88.42
28935;BME280;16044;52.726;-2.108;2023-05-09T08:46:12;100057.88;;;17.25;86.03
28935;BME280;16044;52.726;-2.108;2023-05-09T08:49:00;100061.09;;;17.22;86.01
28935;BME280;16044;52.726;-2.108;2023-05-09T08:51:51;100052.00;;;17.22;87.25
28935;BME280;16044;52.726;-2.108;2023-05-09T08:54:39;100055.13;;;17.25;85.00
28935;BME280;16044;52.726;-2.108;2023-05-09T08:57:26;100053.69;;;17.23;86.39
28935;BME280;16044;52.726;-2.108;2023-05-09T09:00:14;100051.44;;;17.31;87.36
28935;BME280;16044;52.726;-2.108;2023-05-09T09:03:06;100059.81;;;17.37;84.87
28935;BME280;16044;52.726;-2.108;2023-05-09T09:05:54;100055.09;;;17.44;85.06
28935;BME280;16044;52.726;-2.108;2023-05-09T09:08:43;100048.59;;;17.57;85.21
28935;BME280;16044;52.726;-2.108;2023-05-09T09:11:30;100051.16;;;17.82;84.88
28935;BME280;16044;52.726;-2.108;2023-05-09T09:14:23;100045.47;;;17.95;82.46
28935;BME280;16044;52.726;-2.108;2023-05-09T09:17:15;100044.41;;;18.08;81.93
28935;BME280;16044;52.726;-2.108;2023-05-09T09:20:07;100043.97;;;18.11;81.12
28935;BME280;16044;52.726;-2.108;2023-05-09T09:23:02;100033.81;;;18.11;81.24
28935;BME280;16044;52.726;-2.108;2023-05-09T09:26:01;100030.47;;;18.09;79.45
28935;BME280;16044;52.726;-2.108;2023-05-09T09:28:50;100029.84;;;17.96;79.95
28935;BME280;16044;52.726;-2.108;2023-05-09T09:31:38;100036.88;;;18.03;79.96
28935;BME280;16044;52.726;-2.108;2023-05-09T09:34:30;100033.69;;;18.06;79.36
28935;BME280;16044;52.726;-2.108;2023-05-09T09:37:22;100039.25;;;17.88;79.84
28935;BME280;16044;52.726;-2.108;2023-05-09T09:40:11;100032.56;;;17.84;80.53
28935;BME280;16044;52.726;-2.108;2023-05-09T09:42:59;100038.16;;;17.77;80.22
28935;BME280;16044;52.726;-2.108;2023-05-09T09:45:49;100028.38;;;17.81;81.21
28935;BME280;16044;52.726;-2.108;2023-05-09T09:48:37;100037.59;;;17.87;82.47
28935;BME280;16044;52.726;-2.108;2023-05-09T09:51:26;100033.22;;;17.98;80.44
28935;BME280;16044;52.726;-2.108;2023-05-09T09:54:14;100022.34;;;18.03;78.70
28935;BME280;16044;52.726;-2.108;2023-05-09T09:57:02;100023.44;;;18.25;78.97
28935;BME280;16044;52.726;-2.108;2023-05-09T09:59:58;100024.03;;;18.51;79.88
28935;BME280;16044;52.726;-2.108;2023-05-09T10:02:54;100025.69;;;18.64;77.51
28935;BME280;16044;52.726;-2.108;2023-05-09T10:05:43;100031.25;;;18.69;75.88
28935;BME280;16044;52.726;-2.108;2023-05-09T10:08:31;100026.00;;;18.79;76.04
28935;BME280;16044;52.726;-2.108;2023-05-09T10:11:18;100020.63;;;18.84;76.16
28935;BME280;16044;52.726;-2.108;2023-05-09T10:14:06;100014.19;;;18.91;73.94
28935;BME280;16044;52.726;-2.108;2023-05-09T10:16:55;100016.81;;;18.85;73.25
28935;BME280;16044;52.726;-2.108;2023-05-09T10:19:44;100008.59;;;18.74;73.22
28935;BME280;16044;52.726;-2.108;2023-05-09T10:22:33;100014.31;;;18.72;75.37
28935;BME280;16044;52.726;-2.108;2023-05-09T10:25:37;100010.88;;;18.65;77.35
28935;BME280;16044;52.726;-2.108;2023-05-09T10:28:30;100012.56;;;18.66;78.65
28935;BME280;16044;52.726;-2.108;2023-05-09T10:31:25;100006.94;;;18.61;77.89
28935;BME280;16044;52.726;-2.108;2023-05-09T10:34:14;99996.47;;;18.46;76.95
28935;BME280;16044;52.726;-2.108;2023-05-09T10:37:02;100003.88;;;18.45;78.29
28935;BME280;16044;52.726;-2.108;2023-05-09T10:39:50;99993.94;;;18.44;76.59
28935;BME280;16044;52.726;-2.108;2023-05-09T10:42:42;99993.25;;;18.49;77.67
28935;BME280;16044;52.726;-2.108;2023-05-09T10:45:30;99992.16;;;18.50;77.11
28935;BME280;16044;52.726;-2.108;2023-05-09T10:48:17;99994.19;;;18.55;75.68
28935;BME280;16044;52.726;-2.108;2023-05-09T10:51:06;99983.56;;;18.58;75.51
28935;BME280;16044;52.726;-2.108;2023-05-09T10:53:54;99984.59;;;18.69;76.28
28935;BME280;16044;52.726;-2.108;2023-05-09T10:56:42;99980.53;;;18.83;75.12
28935;BME280;16044;52.726;-2.108;2023-05-09T10:59:41;99970.72;;;18.87;74.23
28935;BME280;16044;52.726;-2.108;2023-05-09T11:02:29;99969.75;;;18.94;75.59
28935;BME280;16044;52.726;-2.108;2023-05-09T11:05:19;99970.84;;;18.93;74.47
28935;BME280;16044;52.726;-2.108;2023-05-09T11:08:19;99975.63;;;18.85;73.69
28935;BME280;16044;52.726;-2.108;2023-05-09T11:11:21;99970.09;;;18.45;75.17
28935;BME280;16044;52.726;-2.108;2023-05-09T11:14:37;99974.88;;;18.26;76.98
28935;BME280;16044;52.726;-2.108;2023-05-09T11:17:31;99976.91;;;18.07;80.42
28935;BME280;16044;52.726;-2.108;2023-05-09T11:20:26;99976.91;;;17.95;81.56
28935;BME280;16044;52.726;-2.108;2023-05-09T11:23:17;99972.09;;;17.79;84.23
28935;BME280;16044;52.726;-2.108;2023-05-09T11:26:06;99962.19;;;17.54;87.04
28935;BME280;16044;52.726;-2.108;2023-05-09T11:28:58;99965.13;;;17.41;88.48
28935;BME280;16044;52.726;-2.108;2023-05-09T11:32:14;99966.06;;;17.23;90.67
28935;BME280;16044;52.726;-2.108;2023-05-09T11:35:23;99961.22;;;17.06;94.65
28935;BME280;16044;52.726;-2.108;2023-05-09T11:38:19;99961.16;;;17.13;91.39
28935;BME280;16044;52.726;-2.108;2023-05-09T11:41:07;99960.09;;;16.95;92.02
28935;BME280;16044;52.726;-2.108;2023-05-09T11:43:55;99946.38;;;16.84;91.93
28935;BME280;16044;52.726;-2.108;2023-05-09T11:46:46;99936.78;;;16.74;92.13
28935;BME280;16044;52.726;-2.108;2023-05-09T11:49:34;99947.66;;;16.63;95.15
28935;BME280;16044;52.726;-2.108;2023-05-09T11:52:23;99943.63;;;16.65;95.49
28935;BME280;16044;52.726;-2.108;2023-05-09T11:55:13;99939.31;;;16.57;96.67
28935;BME280;16044;52.726;-2.108;2023-05-09T11:58:06;99943.50;;;16.60;96.82
28935;BME280;16044;52.726;-2.108;2023-05-09T12:00:53;99947.22;;;16.66;96.75
28935;BME280;16044;52.726;-2.108;2023-05-09T12:03:44;99941.97;;;16.64;97.22
28935;BME280;16044;52.726;-2.108;2023-05-09T12:06:32;99931.78;;;16.71;97.65
28935;BME280;16044;52.726;-2.108;2023-05-09T12:09:19;99930.25;;;16.75;97.54
28935;BME280;16044;52.726;-2.108;2023-05-09T12:12:10;99927.75;;;16.74;97.24
28935;BME280;16044;52.726;-2.108;2023-05-09T12:15:09;99923.69;;;16.76;97.09
28935;BME280;16044;52.726;-2.108;2023-05-09T12:18:04;99917.34;;;16.83;96.31
28935;BME280;16044;52.726;-2.108;2023-05-09T12:20:53;99909.25;;;16.88;96.43
28935;BME280;16044;52.726;-2.108;2023-05-09T12:23:40;99910.09;;;16.88;96.83
28935;BME280;16044;52.726;-2.108;2023-05-09T12:26:27;99904.88;;;16.99;97.22
28935;BME280;16044;52.726;-2.108;2023-05-09T12:29:16;99897.06;;;17.14;97.09
28935;BME280;16044;52.726;-2.108;2023-05-09T12:32:04;99902.13;;;17.41;97.63
28935;BME280;16044;52.726;-2.108;2023-05-09T12:34:52;99905.97;;;17.75;97.38
28935;BME280;16044;52.726;-2.108;2023-05-09T12:37:54;99906.22;;;18.09;96.05
28935;BME280;16044;52.726;-2.108;2023-05-09T12:40:46;99906.13;;;18.44;96.58
28935;BME280;16044;52.726;-2.108;2023-05-09T12:43:36;99913.31;;;18.74;92.76
28935;BME280;16044;52.726;-2.108;2023-05-09T12:46:25;99912.59;;;18.91;92.70
28935;BME280;16044;52.726;-2.108;2023-05-09T12:49:20;99925.25;;;19.08;92.17
28935;BME280;16044;52.726;-2.108;2023-05-09T12:52:16;99916.88;;;19.15;90.47
28935;BME280;16044;52.726;-2.108;2023-05-09T12:55:13;99925.03;;;19.27;88.94
28935;BME280;16044;52.726;-2.108;2023-05-09T12:58:02;99942.09;;;18.83;77.83
28935;BME280;16044;52.726;-2.108;2023-05-09T13:00:49;99939.56;;;18.41;72.21
28935;BME280;16044;52.726;-2.108;2023-05-09T13:03:37;99927.91;;;18.10;71.83
28935;BME280;16044;52.726;-2.108;2023-05-09T13:06:24;99930.66;;;17.75;72.64
28935;BME280;16044;52.726;-2.108;2023-05-09T13:09:11;99925.25;;;17.45;73.58
28935;BME280;16044;52.726;-2.108;2023-05-09T13:11:59;99928.66;;;17.17;72.76
28935;BME280;16044;52.726;-2.108;2023-05-09T13:14:47;99925.22;;;16.91;74.19
28935;BME280;16044;52.726;-2.108;2023-05-09T13:17:34;99924.63;;;16.70;75.89
28935;BME280;16044;52.726;-2.108;2023-05-09T13:20:21;99907.00;;;16.66;76.21
28935;BME280;16044;52.726;-2.108;2023-05-09T13:23:09;99911.34;;;16.55;76.74
28935;BME280;16044;52.726;-2.108;2023-05-09T13:25:56;99913.81;;;16.45;75.97
28935;BME280;16044;52.726;-2.108;2023-05-09T13:28:44;99925.41;;;16.41;75.48
28935;BME280;16044;52.726;-2.108;2023-05-09T13:31:31;99923.75;;;16.40;76.01
28935;BME280;16044;52.726;-2.108;2023-05-09T13:34:19;99934.59;;;16.46;76.83
28935;BME280;16044;52.726;-2.108;2023-05-09T13:37:06;99942.75;;;16.53;75.61
28935;BME280;16044;52.726;-2.108;2023-05-09T13:39:54;99950.13;;;16.52;76.97
28935;BME280;16044;52.726;-2.108;2023-05-09T13:42:41;99955.59;;;16.52;76.31
28935;BME280;16044;52.726;-2.108;2023-05-09T13:45:29;99956.63;;;16.70;75.98
28935;BME280;16044;52.726;-2.108;2023-05-09T13:48:16;99962.19;;;16.63;77.05
28935;BME280;16044;52.726;-2.108;2023-05-09T13:51:04;99954.34;;;16.85;74.54
28935;BME280;16044;52.726;-2.108;2023-05-09T13:53:53;99958.44;;;16.76;75.62
28935;BME280;16044;52.726;-2.108;2023-05-09T13:56:41;99954.81;;;16.64;75.60
28935;BME280;16044;52.726;-2.108;2023-05-09T13:59:30;99953.28;;;16.68;75.70
28935;BME280;16044;52.726;-2.108;2023-05-09T14:02:18;99954.81;;;16.82;76.32
28935;BME280;16044;52.726;-2.108;2023-05-09T14:05:05;99955.25;;;16.79;75.38
28935;BME280;16044;52.726;-2.108;2023-05-09T14:07:53;99955.19;;;16.86;75.07
28935;BME280;16044;52.726;-2.108;2023-05-09T14:10:41;99945.69;;;16.88;75.58
28935;BME280;16044;52.726;-2.108;2023-05-09T14:13:28;99934.59;;;16.83;75.06
28935;BME280;16044;52.726;-2.108;2023-05-09T14:16:18;99938.09;;;16.72;75.35
28935;BME280;16044;52.726;-2.108;2023-05-09T14:19:07;99932.16;;;16.75;75.54
28935;BME280;16044;52.726;-2.108;2023-05-09T14:21:54;99928.34;;;16.76;75.54
28935;BME280;16044;52.726;-2.108;2023-05-09T14:24:43;99931.56;;;16.73;75.26
28935;BME280;16044;52.726;-2.108;2023-05-09T14:27:30;99930.66;;;16.61;75.86
28935;BME280;16044;52.726;-2.108;2023-05-09T14:30:18;99928.50;;;16.63;75.77
28935;BME280;16044;52.726;-2.108;2023-05-09T14:33:05;99935.56;;;16.70;75.17
28935;BME280;16044;52.726;-2.108;2023-05-09T14:35:53;99933.53;;;16.66;75.50
28935;BME280;16044;52.726;-2.108;2023-05-09T14:38:40;99931.19;;;16.69;75.74
28935;BME280;16044;52.726;-2.108;2023-05-09T14:41:29;99938.84;;;16.79;75.81